createdAt,value
2018-03-22T00:01:25.933Z,3.90
2018-03-22T00:03:54.424Z,4.00
2018-03-22T00:06:21.888Z,3.90
2018-03-22T00:08:50.246Z,3.80
2018-03-22T00:11:18.359Z,3.80
2018-03-22T00:13:45.973Z,3.90
2018-03-22T00:16:13.462Z,3.90
2018-03-22T00:18:41.710Z,3.90
2018-03-22T00:21:09.201Z,3.90
2018-03-22T00:23:37.534Z,3.80
2018-03-22T00:26:05.034Z,3.80
2018-03-22T00:28:33.273Z,3.80
2018-03-22T00:31:00.864Z,3.80
2018-03-22T00:33:29.100Z,3.90
2018-03-22T00:35:56.645Z,3.80
2018-03-22T00:38:24.193Z,3.90
2018-03-22T00:40:51.685Z,3.90
2018-03-22T00:43:19.161Z,3.90
2018-03-22T00:45:46.660Z,3.80
2018-03-22T00:48:14.148Z,3.80
2018-03-22T00:50:41.617Z,3.80
2018-03-22T00:53:09.864Z,3.90
2018-03-22T00:55:37.332Z,3.80
2018-03-22T00:58:04.819Z,3.90
2018-03-22T01:00:33.045Z,3.90
2018-03-22T01:03:00.522Z,3.90
2018-03-22T01:05:28.184Z,3.90
2018-03-22T01:07:55.671Z,3.90
2018-03-22T01:10:23.180Z,3.90
2018-03-22T01:12:50.754Z,3.90
2018-03-22T01:15:18.277Z,3.90
2018-03-22T01:17:45.751Z,3.90
2018-03-22T01:20:13.221Z,3.90
2018-03-22T01:22:40.714Z,4.00
2018-03-22T01:25:09.006Z,4.00
2018-03-22T01:27:37.430Z,4.10
2018-03-22T01:32:58.033Z,4.10
2018-03-22T01:35:25.602Z,4.10
2018-03-22T01:37:53.184Z,4.10
2018-03-22T01:40:20.659Z,4.10
2018-03-22T01:42:48.373Z,4.10
2018-03-22T01:45:15.961Z,4.20
2018-03-22T01:47:43.461Z,4.20
2018-03-22T01:50:11.690Z,4.20
2018-03-22T01:52:51.044Z,4.20
2018-03-22T01:55:18.610Z,4.30
2018-03-22T01:57:46.577Z,4.30
2018-03-22T02:00:14.145Z,4.30
2018-03-22T02:02:42.403Z,4.40
2018-03-22T02:05:11.382Z,4.40
2018-03-22T02:07:38.925Z,4.40
2018-03-22T02:10:06.428Z,4.40
2018-03-22T02:12:33.905Z,4.40
2018-03-22T02:15:02.149Z,4.40
2018-03-22T02:17:29.618Z,4.40
2018-03-22T02:19:57.868Z,4.40
2018-03-22T02:22:25.329Z,4.40
2018-03-22T02:24:52.873Z,4.40
2018-03-22T02:27:20.335Z,4.40
2018-03-22T02:29:47.816Z,4.40
2018-03-22T02:32:15.911Z,4.40
2018-03-22T02:34:44.162Z,4.40
2018-03-22T02:37:11.631Z,4.40
2018-03-22T02:39:39.886Z,4.40
2018-03-22T02:42:07.366Z,4.40
2018-03-22T02:44:35.738Z,4.40
2018-03-22T02:47:03.217Z,4.40
2018-03-22T02:49:30.733Z,4.40
2018-03-22T02:51:58.208Z,4.40
2018-03-22T02:54:25.671Z,4.40
2018-03-22T02:56:53.921Z,4.40
2018-03-22T02:59:21.380Z,4.40
2018-03-22T03:01:48.857Z,4.40
2018-03-22T03:04:17.096Z,4.40
2018-03-22T03:06:44.570Z,4.30
2018-03-22T03:09:12.056Z,4.40
2018-03-22T03:11:40.290Z,4.40
2018-03-22T03:14:07.777Z,4.40
2018-03-22T03:16:35.377Z,4.40
2018-03-22T03:19:02.832Z,4.40
2018-03-22T03:21:30.455Z,4.30
2018-03-22T03:23:58.684Z,4.30
2018-03-22T03:26:26.161Z,4.30
2018-03-22T03:28:53.697Z,4.40
2018-03-22T03:31:21.162Z,4.40
2018-03-22T03:33:48.637Z,4.40
2018-03-22T03:36:16.168Z,4.30
2018-03-22T03:38:43.642Z,4.30
2018-03-22T03:41:11.118Z,4.30
2018-03-22T03:43:38.585Z,4.30
2018-03-22T03:46:06.826Z,4.20
2018-03-22T03:48:34.292Z,4.20
2018-03-22T03:51:01.753Z,4.20
2018-03-22T03:53:29.229Z,4.20
2018-03-22T03:55:56.693Z,4.20
2018-03-22T03:58:24.941Z,4.30
2018-03-22T04:00:52.527Z,4.30
2018-03-22T04:03:20.771Z,4.30
2018-03-22T04:05:48.259Z,4.30
2018-03-22T04:08:15.734Z,4.30
2018-03-22T04:10:43.973Z,4.30
2018-03-22T04:13:12.200Z,4.30
2018-03-22T04:15:39.684Z,4.30
2018-03-22T04:18:07.148Z,4.20
2018-03-22T04:20:34.640Z,4.20
2018-03-22T04:23:02.889Z,4.10
2018-03-22T04:25:30.453Z,4.10
2018-03-22T04:27:57.933Z,4.10
2018-03-22T04:30:26.608Z,4.20
2018-03-22T04:32:54.231Z,4.10
2018-03-22T04:35:21.701Z,4.20
2018-03-22T04:37:49.184Z,4.20
2018-03-22T04:40:16.653Z,4.10
2018-03-22T04:42:44.894Z,4.10
2018-03-22T04:45:12.384Z,4.10
2018-03-22T04:47:40.711Z,4.10
2018-03-22T04:50:08.177Z,4.10
2018-03-22T04:52:35.651Z,4.10
2018-03-22T04:55:03.117Z,4.10
2018-03-22T04:57:30.587Z,4.10
2018-03-22T04:59:58.905Z,4.10
2018-03-22T05:02:26.590Z,4.10
2018-03-22T05:04:54.125Z,4.20
2018-03-22T05:07:21.728Z,4.20
2018-03-22T05:09:49.393Z,4.20
2018-03-22T05:12:16.900Z,4.20
2018-03-22T05:14:44.478Z,4.20
2018-03-22T05:17:11.949Z,4.20
2018-03-22T05:19:39.524Z,4.20
2018-03-22T05:22:07.000Z,4.20
2018-03-22T05:24:35.239Z,4.20
2018-03-22T05:27:02.697Z,4.20
2018-03-22T05:29:30.176Z,4.20
2018-03-22T05:31:57.650Z,4.20
2018-03-22T05:34:25.910Z,4.10
2018-03-22T05:36:53.381Z,4.10
2018-03-22T05:39:21.639Z,4.10
2018-03-22T05:41:49.154Z,4.10
2018-03-22T05:44:16.641Z,4.10
2018-03-22T05:46:44.148Z,4.10
2018-03-22T05:49:11.621Z,4.10
2018-03-22T05:51:39.081Z,4.00
2018-03-22T05:54:06.546Z,4.10
2018-03-22T05:56:34.044Z,4.00
2018-03-22T05:59:01.521Z,4.10
2018-03-22T06:01:29.779Z,4.00
2018-03-22T06:03:57.246Z,4.00
2018-03-22T06:06:25.570Z,4.00
2018-03-22T06:08:53.063Z,4.00
2018-03-22T06:11:20.594Z,4.00
2018-03-22T06:13:48.078Z,4.00
2018-03-22T06:16:15.553Z,4.00
2018-03-22T06:18:43.783Z,3.90
2018-03-22T06:21:12.038Z,3.80
2018-03-22T06:23:39.664Z,3.80
2018-03-22T06:26:07.925Z,3.70
2018-03-22T06:28:35.388Z,3.70
2018-03-22T06:31:03.761Z,3.60
2018-03-22T06:33:31.364Z,3.50
2018-03-22T06:35:58.845Z,3.50
2018-03-22T06:38:26.388Z,3.50
2018-03-22T06:40:53.889Z,3.50
2018-03-22T06:43:21.362Z,3.50
2018-03-22T06:45:48.970Z,3.50
2018-03-22T06:48:17.166Z,3.50
2018-03-22T06:50:44.665Z,3.50
2018-03-22T06:53:12.905Z,3.50
2018-03-22T06:55:40.393Z,3.40
2018-03-22T06:58:08.614Z,3.40
2018-03-22T07:00:36.093Z,3.40
2018-03-22T07:03:03.560Z,3.50
2018-03-22T07:05:31.050Z,3.40
2018-03-22T07:07:58.527Z,3.50
2018-03-22T07:10:25.994Z,3.50
2018-03-22T07:12:53.462Z,3.50
2018-03-22T07:15:20.945Z,3.50
2018-03-22T07:17:49.056Z,3.50
2018-03-22T07:20:16.569Z,3.50
2018-03-22T07:25:18.750Z,3.60
2018-03-22T07:27:46.266Z,3.50
2018-03-22T07:30:13.763Z,3.60
2018-03-22T07:32:41.346Z,3.60
2018-03-22T07:35:09.573Z,3.60
2018-03-22T07:37:37.108Z,3.60
2018-03-22T07:40:04.696Z,3.60
2018-03-22T07:42:32.172Z,3.60
2018-03-22T07:44:59.686Z,3.60
2018-03-22T07:47:27.905Z,3.80
2018-03-22T07:49:56.120Z,3.80
2018-03-22T07:52:24.450Z,3.90
2018-03-22T07:54:51.986Z,3.90
2018-03-22T07:57:19.470Z,3.90
2018-03-22T07:59:47.006Z,4.00
2018-03-22T08:02:14.532Z,3.90
2018-03-22T08:04:42.043Z,3.90
2018-03-22T08:07:09.512Z,3.90
2018-03-22T08:09:36.994Z,3.90
2018-03-22T08:12:05.862Z,3.90
2018-03-22T08:14:33.862Z,3.90
2018-03-22T08:17:01.337Z,3.90
2018-03-22T08:19:28.820Z,4.00
2018-03-22T08:21:56.298Z,4.00
2018-03-22T08:24:23.953Z,4.00
2018-03-22T08:26:51.421Z,4.00
2018-03-22T08:29:18.886Z,4.10
2018-03-22T08:31:46.485Z,4.10
2018-03-22T08:34:13.968Z,4.10
2018-03-22T08:36:41.563Z,4.00
2018-03-22T08:39:09.153Z,4.10
2018-03-22T08:41:36.667Z,4.10
2018-03-22T08:44:04.302Z,4.10
2018-03-22T08:46:31.912Z,3.90
2018-03-22T08:49:00.142Z,4.00
2018-03-22T08:51:27.625Z,4.00
2018-03-22T08:53:55.086Z,4.10
2018-03-22T08:56:22.563Z,4.00
2018-03-22T08:58:50.797Z,4.00
2018-03-22T09:01:18.431Z,4.00
2018-03-22T09:03:45.953Z,4.00
2018-03-22T09:06:14.305Z,4.10
2018-03-22T09:08:42.836Z,4.00
2018-03-22T09:11:10.306Z,4.10
2018-03-22T09:13:37.783Z,4.10
2018-03-22T09:16:05.258Z,4.10
2018-03-22T09:18:32.727Z,4.20
2018-03-22T09:21:00.201Z,4.20
2018-03-22T09:23:28.440Z,4.20
2018-03-22T09:25:56.033Z,4.10
2018-03-22T09:28:24.269Z,4.30
2018-03-22T09:30:51.757Z,4.30
2018-03-22T09:33:19.225Z,4.50
2018-03-22T09:35:47.466Z,4.50
2018-03-22T09:38:14.930Z,4.50
2018-03-22T09:40:42.402Z,4.50
2018-03-22T09:43:09.922Z,4.50
2018-03-22T09:45:37.391Z,4.50
2018-03-22T09:48:04.881Z,4.50
2018-03-22T09:50:33.225Z,4.50
2018-03-22T09:53:00.693Z,4.60
2018-03-22T09:55:28.367Z,4.60
2018-03-22T09:57:55.906Z,4.60
2018-03-22T10:00:23.588Z,4.70
2018-03-22T10:02:51.122Z,4.70
2018-03-22T10:05:18.609Z,4.80
2018-03-22T10:07:46.069Z,4.80
2018-03-22T10:10:14.426Z,4.90
2018-03-22T10:12:41.909Z,4.90
2018-03-22T10:15:10.177Z,5.10
2018-03-22T10:17:37.634Z,5.00
2018-03-22T10:20:05.274Z,5.00
2018-03-22T10:22:32.802Z,5.10
2018-03-22T10:25:00.409Z,5.00
2018-03-22T10:27:28.064Z,5.10
2018-03-22T10:29:55.598Z,5.10
2018-03-22T10:32:23.177Z,5.20
2018-03-22T10:34:50.701Z,5.20
2018-03-22T10:37:18.182Z,5.20
2018-03-22T10:39:45.669Z,5.30
2018-03-22T10:42:13.895Z,5.30
2018-03-22T10:44:41.368Z,5.30
2018-03-22T10:47:08.845Z,5.30
2018-03-22T10:49:36.433Z,5.40
2018-03-22T10:52:04.673Z,5.40
2018-03-22T10:54:32.169Z,5.40
2018-03-22T10:56:59.639Z,5.50
2018-03-22T10:59:27.873Z,5.50
2018-03-22T11:02:00.156Z,5.50
2018-03-22T11:04:28.398Z,5.40
2018-03-22T11:06:55.871Z,5.40
2018-03-22T11:09:23.332Z,5.50
2018-03-22T11:11:50.799Z,5.60
2018-03-22T11:14:19.040Z,5.70
2018-03-22T11:16:46.578Z,5.70
2018-03-22T11:19:14.100Z,5.70
2018-03-22T11:21:42.328Z,5.80
2018-03-22T11:24:09.804Z,5.80
2018-03-22T11:26:37.269Z,5.90
2018-03-22T11:29:04.749Z,6.00
2018-03-22T11:31:32.228Z,6.10
2018-03-22T11:33:59.678Z,6.10
2018-03-22T11:36:27.226Z,6.20
2018-03-22T11:38:54.740Z,6.20
2018-03-22T11:41:22.271Z,6.20
2018-03-22T11:43:49.683Z,6.20
2018-03-22T11:46:17.926Z,6.20
2018-03-22T11:48:45.514Z,6.20
2018-03-22T11:51:13.835Z,6.20
2018-03-22T11:53:41.449Z,6.20
2018-03-22T11:56:08.873Z,6.30
2018-03-22T11:58:36.341Z,6.30
2018-03-22T12:01:03.821Z,6.40
2018-03-22T12:03:32.096Z,6.40
2018-03-22T12:05:59.541Z,6.40
2018-03-22T12:08:27.003Z,6.50
2018-03-22T12:10:54.482Z,6.50
2018-03-22T12:13:21.958Z,6.50
2018-03-22T12:15:49.569Z,6.60
2018-03-22T12:18:17.031Z,6.60
2018-03-22T12:20:44.582Z,6.60
2018-03-22T12:23:12.852Z,6.60
2018-03-22T12:25:40.892Z,6.60
2018-03-22T12:28:08.393Z,6.70
2018-03-22T12:30:35.865Z,6.60
2018-03-22T12:33:04.146Z,6.70
2018-03-22T12:35:32.521Z,6.70
2018-03-22T12:38:00.759Z,6.70
2018-03-22T12:40:28.239Z,6.70
2018-03-22T12:42:55.717Z,6.70
2018-03-22T12:45:23.948Z,6.70
2018-03-22T12:47:51.516Z,6.70
2018-03-22T12:50:19.013Z,6.80
2018-03-22T12:52:46.542Z,6.80
2018-03-22T12:55:14.100Z,6.70
2018-03-22T12:57:41.612Z,6.80
2018-03-22T13:00:09.175Z,6.90
2018-03-22T13:02:36.662Z,6.90
2018-03-22T13:05:04.975Z,6.90
2018-03-22T13:07:33.213Z,7.00
2018-03-22T13:10:00.833Z,7.00
2018-03-22T13:12:28.348Z,7.00
2018-03-22T13:14:55.832Z,7.10
2018-03-22T13:17:24.049Z,7.50
2018-03-22T13:19:51.553Z,7.50
2018-03-22T13:22:19.786Z,7.80
2018-03-22T13:24:47.249Z,7.70
2018-03-22T13:27:14.811Z,8.00
2018-03-22T13:29:42.539Z,8.10
2018-03-22T13:32:11.030Z,8.50
2018-03-22T13:34:38.497Z,8.70
2018-03-22T13:37:05.988Z,8.60
2018-03-22T13:39:33.458Z,8.60
2018-03-22T13:42:00.967Z,8.50
2018-03-22T13:44:28.447Z,8.40
2018-03-22T13:46:55.930Z,8.30
2018-03-22T13:49:24.203Z,8.10
2018-03-22T13:51:51.647Z,8.00
2018-03-22T13:54:19.164Z,8.00
2018-03-22T13:56:46.712Z,7.90
2018-03-22T13:59:14.173Z,7.80
2018-03-22T14:01:41.663Z,7.70
2018-03-22T14:04:09.145Z,7.80
2018-03-22T14:06:37.465Z,7.60
2018-03-22T14:09:05.001Z,7.60
2018-03-22T14:11:32.458Z,7.60
2018-03-22T14:14:00.057Z,7.70
2018-03-22T14:16:27.544Z,7.70
2018-03-22T14:18:55.130Z,7.70
2018-03-22T14:21:23.486Z,7.70
2018-03-22T14:23:50.921Z,7.60
2018-03-22T14:26:18.480Z,7.60
2018-03-22T14:28:45.954Z,7.60
2018-03-22T14:31:13.435Z,7.70
2018-03-22T14:33:41.669Z,7.70
2018-03-22T14:36:09.355Z,7.70
2018-03-22T14:38:36.934Z,7.70
2018-03-22T14:41:05.177Z,7.60
2018-03-22T14:43:32.812Z,7.60
2018-03-22T14:46:00.284Z,7.60
2018-03-22T14:48:27.780Z,7.70
2018-03-22T14:50:56.013Z,7.80
2018-03-22T14:53:23.504Z,7.70
2018-03-22T14:55:51.034Z,7.80
2018-03-22T14:58:18.536Z,7.80
2018-03-22T15:00:46.834Z,7.80
2018-03-22T15:03:14.311Z,7.80
2018-03-22T15:05:41.780Z,7.90
2018-03-22T15:08:09.437Z,7.90
2018-03-22T15:10:37.674Z,7.80
2018-03-22T15:13:05.149Z,7.80
2018-03-22T15:15:32.783Z,7.90
2018-03-22T15:18:00.381Z,8.00
2018-03-22T15:20:27.922Z,8.00
2018-03-22T15:22:55.556Z,8.10
2018-03-22T15:25:23.801Z,8.10
2018-03-22T15:27:52.785Z,8.10
2018-03-22T15:30:20.274Z,8.10
2018-03-22T15:32:48.697Z,8.20
2018-03-22T15:35:16.314Z,8.20
2018-03-22T15:37:44.550Z,8.20
2018-03-22T15:40:12.161Z,8.20
2018-03-22T15:42:39.638Z,8.20
2018-03-22T15:45:07.130Z,8.20
2018-03-22T15:47:34.594Z,8.10
2018-03-22T15:50:02.296Z,8.20
2018-03-22T15:52:29.771Z,8.20
2018-03-22T15:54:58.071Z,8.20
2018-03-22T15:57:25.763Z,8.20
2018-03-22T15:59:53.274Z,8.20
2018-03-22T16:02:20.846Z,8.20
2018-03-22T16:04:48.441Z,8.30
2018-03-22T16:07:16.098Z,8.20
2018-03-22T16:09:43.676Z,8.30
2018-03-22T16:12:11.917Z,8.30
2018-03-22T16:14:39.385Z,8.20
2018-03-22T16:17:07.641Z,8.40
2018-03-22T16:19:35.181Z,8.30
2018-03-22T16:22:02.649Z,8.40
2018-03-22T16:24:30.125Z,8.40
2018-03-22T16:26:57.638Z,8.30
2018-03-22T16:29:25.258Z,8.40
2018-03-22T16:31:52.724Z,8.40
2018-03-22T16:34:20.206Z,8.30
2018-03-22T16:36:48.452Z,8.30
2018-03-22T16:39:15.924Z,8.20
2018-03-22T16:41:44.292Z,8.20
2018-03-22T16:44:11.822Z,8.20
2018-03-22T16:46:39.380Z,8.20
2018-03-22T16:49:07.008Z,8.20
2018-03-22T16:51:34.643Z,8.20
2018-03-22T16:54:02.894Z,8.30
2018-03-22T16:56:30.366Z,8.30
2018-03-22T16:58:58.597Z,8.40
2018-03-22T17:01:26.087Z,8.30
2018-03-22T17:03:54.412Z,8.30
2018-03-22T17:06:21.910Z,8.30
2018-03-22T17:08:49.404Z,8.30
2018-03-22T17:11:17.663Z,8.30
2018-03-22T17:13:45.960Z,8.30
2018-03-22T17:16:14.425Z,8.20
2018-03-22T17:18:42.672Z,8.20
2018-03-22T17:21:10.145Z,8.20
2018-03-22T17:23:38.374Z,8.20
2018-03-22T17:26:05.875Z,8.20
2018-03-22T17:28:33.456Z,8.20
2018-03-22T17:31:01.712Z,8.30
2018-03-22T17:33:29.192Z,8.20
2018-03-22T17:35:57.422Z,8.20
2018-03-22T17:38:24.930Z,8.20
2018-03-22T17:40:52.482Z,8.20
2018-03-22T17:43:20.770Z,8.20
2018-03-22T17:45:49.183Z,8.20
2018-03-22T17:48:16.662Z,8.20
2018-03-22T17:50:44.133Z,8.20
2018-03-22T17:53:11.592Z,8.20
2018-03-22T17:55:39.083Z,8.20
2018-03-22T17:58:06.640Z,8.20
2018-03-22T18:00:34.106Z,8.10
2018-03-22T18:03:01.653Z,8.20
2018-03-22T18:05:29.112Z,8.10
2018-03-22T18:07:56.598Z,8.20
2018-03-22T18:10:24.138Z,8.20
2018-03-22T18:12:51.607Z,8.20
2018-03-22T18:15:19.202Z,8.20
2018-03-22T18:17:46.680Z,8.30
2018-03-22T18:20:14.932Z,8.20
2018-03-22T18:22:42.435Z,8.20
2018-03-22T18:25:09.958Z,8.10
2018-03-22T18:27:38.198Z,8.10
2018-03-22T18:30:05.763Z,8.10
2018-03-22T18:32:33.248Z,8.10
2018-03-22T18:35:00.734Z,8.00
2018-03-22T18:37:29.015Z,7.90
2018-03-22T18:39:56.522Z,7.90
2018-03-22T18:42:24.362Z,7.90
2018-03-22T18:44:52.899Z,8.00
2018-03-22T18:47:20.639Z,7.90
2018-03-22T18:49:48.281Z,8.00
2018-03-22T18:52:15.804Z,7.90
2018-03-22T18:54:44.476Z,7.90
2018-03-22T18:57:12.961Z,7.80
2018-03-22T18:59:40.477Z,7.80
2018-03-22T19:02:07.947Z,7.80
2018-03-22T19:04:35.452Z,7.70
2018-03-22T19:07:02.932Z,7.70
2018-03-22T19:09:30.440Z,7.70
2018-03-22T19:11:58.682Z,7.60
2018-03-22T19:14:26.151Z,7.60
2018-03-22T19:16:53.634Z,7.60
2018-03-22T19:19:21.879Z,7.50
2018-03-22T19:21:49.357Z,7.50
2018-03-22T19:24:17.614Z,7.50
2018-03-22T19:26:45.236Z,7.40
2018-03-22T19:29:12.750Z,7.50
2018-03-22T19:31:40.208Z,7.50
2018-03-22T19:34:08.468Z,7.50
2018-03-22T19:36:35.945Z,7.50
2018-03-22T19:39:04.195Z,7.50
2018-03-22T19:41:31.670Z,7.50
2018-03-22T19:43:59.144Z,7.40
2018-03-22T19:46:27.396Z,7.50
2018-03-22T19:48:54.880Z,7.40
2018-03-22T19:51:23.109Z,7.50
2018-03-22T19:53:50.585Z,7.50
2018-03-22T19:56:18.214Z,7.50
2018-03-22T19:58:46.432Z,7.40
2018-03-22T20:01:14.686Z,7.40
2018-03-22T20:03:42.281Z,7.40
2018-03-22T20:06:09.915Z,7.40
2018-03-22T20:08:37.390Z,7.50
2018-03-22T20:11:05.646Z,7.50
2018-03-22T20:13:33.764Z,7.40
2018-03-22T20:16:01.238Z,7.50
2018-03-22T20:18:28.703Z,7.50
2018-03-22T20:20:56.255Z,7.50
2018-03-22T20:23:23.734Z,7.50
2018-03-22T20:25:51.240Z,7.50
2018-03-22T20:28:18.929Z,7.60
2018-03-22T20:30:46.682Z,7.60
2018-03-22T20:33:14.184Z,7.60
2018-03-22T20:35:41.966Z,7.60
2018-03-22T20:38:11.148Z,7.60
2018-03-22T20:40:38.872Z,7.60
2018-03-22T20:43:06.336Z,7.60
2018-03-22T20:45:33.832Z,7.60
2018-03-22T20:48:02.097Z,7.50
2018-03-22T20:50:29.560Z,7.50
2018-03-22T20:52:57.155Z,7.50
2018-03-22T20:55:25.410Z,7.50
2018-03-22T20:57:53.649Z,7.50
2018-03-22T21:00:21.122Z,7.40
2018-03-22T21:02:48.597Z,7.50
2018-03-22T21:05:16.919Z,7.50
2018-03-22T21:07:44.594Z,7.50
2018-03-22T21:10:12.055Z,7.50
2018-03-22T21:12:39.548Z,7.50
2018-03-22T21:15:08.434Z,7.50
2018-03-22T21:17:35.900Z,7.50
2018-03-22T21:20:04.137Z,7.50
2018-03-22T21:22:31.618Z,7.50
2018-03-22T21:24:59.074Z,7.50
2018-03-22T21:27:27.322Z,7.50
2018-03-22T21:29:54.815Z,7.50
2018-03-22T21:32:23.042Z,7.50
2018-03-22T21:34:50.527Z,7.60
2018-03-22T21:37:18.101Z,7.50
2018-03-22T21:39:45.633Z,7.50
2018-03-22T21:42:13.096Z,7.50
2018-03-22T21:44:40.584Z,7.40
2018-03-22T21:47:20.755Z,7.30
2018-03-22T21:49:48.242Z,7.30
2018-03-22T21:52:27.675Z,7.40
2018-03-22T21:54:55.149Z,7.30
2018-03-22T21:57:22.617Z,7.30
2018-03-22T21:59:50.096Z,7.40
2018-03-22T22:02:17.718Z,7.40
2018-03-22T22:04:45.202Z,7.40
2018-03-22T22:07:12.671Z,7.30
2018-03-22T22:09:40.159Z,7.40
2018-03-22T22:12:07.646Z,7.30
2018-03-22T22:14:35.106Z,7.30
2018-03-22T22:17:02.578Z,7.30
2018-03-22T22:19:30.162Z,7.30
2018-03-22T22:21:59.145Z,7.30
2018-03-22T22:24:27.374Z,7.40
2018-03-22T22:26:54.880Z,7.40
2018-03-22T22:29:22.449Z,7.40
2018-03-22T22:31:50.705Z,7.40
2018-03-22T22:34:18.216Z,7.40
2018-03-22T22:36:45.760Z,7.30
2018-03-22T22:39:14.264Z,7.50
2018-03-22T22:41:41.893Z,7.50
2018-03-22T22:44:10.154Z,7.60
2018-03-22T22:46:39.148Z,7.50
2018-03-22T22:49:07.394Z,7.50
2018-03-22T22:51:34.955Z,7.40
2018-03-22T22:54:02.617Z,7.40
2018-03-22T22:56:30.087Z,7.40
2018-03-22T22:58:57.714Z,7.30
2018-03-22T23:01:25.210Z,7.30
2018-03-22T23:03:52.687Z,7.30
2018-03-22T23:06:20.934Z,7.20
2018-03-22T23:08:48.410Z,7.20
2018-03-22T23:11:16.661Z,7.20
2018-03-22T23:13:44.125Z,7.30
2018-03-22T23:16:11.601Z,7.20
2018-03-22T23:18:40.077Z,7.30
2018-03-22T23:21:08.334Z,7.30
2018-03-22T23:23:35.799Z,7.20
2018-03-22T23:26:03.266Z,7.20
2018-03-22T23:28:30.758Z,7.20
2018-03-22T23:30:58.222Z,7.20
2018-03-22T23:33:25.795Z,7.10
2018-03-22T23:35:53.354Z,7.20
2018-03-22T23:38:20.832Z,7.10
2018-03-22T23:40:48.434Z,7.20
2018-03-22T23:43:16.664Z,7.20
2018-03-22T23:45:44.132Z,7.20
2018-03-22T23:48:11.755Z,7.20
2018-03-22T23:50:39.321Z,7.10
2018-03-22T23:53:07.006Z,7.10
2018-03-22T23:55:34.545Z,7.00
2018-03-22T23:58:02.019Z,7.10
